Terminal Aerodrome Forecast
Issued by NWS

Current Version | Previous Version | Text Only | Print | Product List | Glossary Off
Versions: 1 2 3 4 5 6 7 8 9 10 11 12 13 14 15 16 17 18 19 20 21 22 23 24 25 26

976
FTUS41 KRLX 190257 AAA
TAFCKB
TAF AMD
KCKB 190257Z 1903/1924 20013G30KT 5SM SHRA OVC035
     FM190500 29014G24KT P6SM SHRA OVC015
     FM191200 28013G24KT P6SM OVC015
     FM191700 28012G22KT P6SM VCSH OVC025=

USA.gov is the U.S. government's official web portal to all federal, state and local government web resources and services.